Time;durP1;ratioP1;P1;durP2;ratioP2;P2;SDS_P1;SDS_P2;PMS_P1;PMS_P2;Temp;Humidity;BMP_temperature;BMP_pressure;BME280_temperature;BME280_humidity;BME280_pressure;Samples;Min_cycle;Max_cycle;Signal;HPM_P1;HPM_P2
2023/07/25 00:02:24;;;;;;;6.78;2.72;;;13.20;99.90;;;;;;5033510;28;20041;-62
2023/07/25 00:04:49;;;;;;;5.18;2.00;;;13.00;99.90;;;;;;5033200;28;20428;-63
2023/07/25 00:07:15;;;;;;;5.97;2.40;;;13.00;99.90;;;;;;5033534;28;20041;-63
2023/07/25 00:09:41;;;;;;;5.68;1.80;;;13.40;99.90;;;;;;5033511;28;20037;-63
2023/07/25 00:12:07;;;;;;;4.60;2.50;;;13.20;99.90;;;;;;5033432;28;20060;-62
2023/07/25 00:14:33;;;;;;;3.92;1.92;;;12.80;99.90;;;;;;5031905;28;20045;-63
2023/07/25 00:16:59;;;;;;;4.63;2.45;;;13.10;99.90;;;;;;5033424;28;20065;-63
2023/07/25 00:19:25;;;;;;;4.07;1.75;;;13.00;99.90;;;;;;5033364;28;20121;-63
2023/07/25 00:21:51;;;;;;;3.70;2.10;;;12.70;99.90;;;;;;5033099;28;20037;-63
2023/07/25 00:24:17;;;;;;;6.50;2.92;;;13.10;99.90;;;;;;5033374;28;20048;-62
2023/07/25 00:26:43;;;;;;;6.80;2.53;;;12.70;99.90;;;;;;5033224;28;20041;-62
2023/07/25 00:29:09;;;;;;;3.50;2.40;;;12.90;99.90;;;;;;5033176;28;20037;-65
2023/07/25 00:31:34;;;;;;;5.22;2.42;;;13.40;99.90;;;;;;5033186;28;20124;-62
2023/07/25 00:34:00;;;;;;;3.65;2.25;;;12.60;99.90;;;;;;5033083;28;20064;-63
2023/07/25 00:36:26;;;;;;;4.43;2.10;;;12.70;99.90;;;;;;5033161;28;20112;-62
2023/07/25 00:38:51;;;;;;;7.00;2.67;;;12.60;99.90;;;;;;5033146;28;20504;-62
2023/07/25 00:41:17;;;;;;;4.28;2.00;;;12.40;99.90;;;;;;5033145;28;20041;-62
2023/07/25 00:43:42;;;;;;;6.00;2.28;;;12.60;99.90;;;;;;5033005;28;20048;-62
2023/07/25 00:46:08;;;;;;;6.70;2.40;;;12.70;99.90;;;;;;5033012;28;20457;-62
2023/07/25 00:48:34;;;;;;;4.57;2.00;;;13.00;99.90;;;;;;5032978;28;20045;-63
2023/07/25 00:50:59;;;;;;;7.15;2.80;;;12.60;99.90;;;;;;5033014;28;20044;-63
2023/07/25 00:53:26;;;;;;;5.00;2.33;;;12.50;99.90;;;;;;5031354;28;20045;-63
2023/07/25 00:55:51;;;;;;;5.22;2.00;;;12.70;99.90;;;;;;5032945;28;20120;-63
2023/07/25 00:58:17;;;;;;;4.78;2.25;;;12.30;99.90;;;;;;5032902;28;20441;-63
2023/07/25 01:00:44;;;;;;;8.40;2.40;;;13.20;99.90;;;;;;5032967;28;20183;-63
2023/07/25 01:03:11;;;;;;;4.20;2.42;;;12.60;99.90;;;;;;5032409;28;20095;-63
2023/07/25 01:05:43;;;;;;;3.33;2.42;;;12.70;99.90;;;;;;5032867;28;20089;-62
2023/07/25 01:08:08;;;;;;;5.43;2.33;;;13.10;99.90;;;;;;5032882;28;20045;-62
2023/07/25 01:10:36;;;;;;;4.68;2.22;;;12.60;99.90;;;;;;5032486;28;20041;-62
2023/07/25 01:13:01;;;;;;;6.85;2.50;;;12.50;99.90;;;;;;5032704;28;20084;-62
2023/07/25 01:15:28;;;;;;;8.15;2.38;;;12.50;99.90;;;;;;5031194;28;20386;-62
2023/07/25 01:17:54;;;;;;;6.53;2.45;;;12.40;99.90;;;;;;5034945;28;20067;-62
2023/07/25 01:20:20;;;;;;;3.92;2.08;;;12.60;99.90;;;;;;5036405;28;20037;-63
2023/07/25 01:22:47;;;;;;;6.28;2.60;;;12.80;99.90;;;;;;5036983;28;20049;-62
2023/07/25 01:25:14;;;;;;;3.97;2.55;;;12.70;99.90;;;;;;5036997;28;20124;-62
2023/07/25 01:27:40;;;;;;;7.88;2.60;;;12.50;99.90;;;;;;5036486;28;20038;-62
2023/07/25 01:30:06;;;;;;;3.97;2.55;;;12.90;99.90;;;;;;5036552;28;20470;-62
2023/07/25 01:32:32;;;;;;;4.85;2.53;;;12.20;99.90;;;;;;5036032;28;20087;-63
2023/07/25 01:34:58;;;;;;;6.70;2.58;;;12.80;99.90;;;;;;5036105;28;20041;-63
2023/07/25 01:37:24;;;;;;;10.20;2.78;;;12.60;99.90;;;;;;5036420;28;20112;-63
2023/07/25 01:39:50;;;;;;;4.82;2.50;;;12.70;99.90;;;;;;5036352;28;20133;-63
2023/07/25 01:42:15;;;;;;;6.22;2.60;;;12.70;99.90;;;;;;5035166;28;20056;-63
2023/07/25 01:44:41;;;;;;;6.05;2.90;;;12.80;99.90;;;;;;5036311;28;20045;-62
2023/07/25 01:47:07;;;;;;;6.22;2.70;;;12.70;99.90;;;;;;5036238;28;20465;-62
2023/07/25 01:49:32;;;;;;;7.53;2.50;;;12.70;99.90;;;;;;5034688;28;20075;-62
2023/07/25 01:51:58;;;;;;;5.70;2.60;;;13.20;99.90;;;;;;5036000;28;20041;-62
2023/07/25 01:54:24;;;;;;;6.55;2.85;;;12.70;99.90;;;;;;5036115;28;20044;-62
2023/07/25 01:56:49;;;;;;;3.75;2.35;;;12.50;99.90;;;;;;5035738;28;20037;-62
2023/07/25 01:59:16;;;;;;;6.57;2.47;;;13.00;99.90;;;;;;5036041;28;20037;-62
2023/07/25 02:01:41;;;;;;;5.85;2.55;;;12.70;99.90;;;;;;5035967;28;20151;-62
2023/07/25 02:04:07;;;;;;;6.60;2.38;;;12.60;99.90;;;;;;5035554;28;20584;-63
2023/07/25 02:06:32;;;;;;;6.60;2.63;;;12.70;99.90;;;;;;5035759;28;20489;-62
2023/07/25 02:08:58;;;;;;;5.88;2.58;;;12.40;99.90;;;;;;5035794;28;20053;-62
2023/07/25 02:11:23;;;;;;;8.15;2.92;;;12.60;99.90;;;;;;5035835;28;20364;-63
2023/07/25 02:13:49;;;;;;;9.05;2.95;;;12.60;99.90;;;;;;5035626;28;20045;-63
2023/07/25 02:16:15;;;;;;;7.72;2.67;;;12.90;99.90;;;;;;5035671;28;20033;-63
2023/07/25 02:18:40;;;;;;;6.10;2.33;;;12.90;99.90;;;;;;5035618;28;20374;-63
2023/07/25 02:21:06;;;;;;;7.93;2.40;;;12.80;99.90;;;;;;5035243;28;20587;-63
2023/07/25 02:23:31;;;;;;;3.25;2.00;;;12.70;99.90;;;;;;5035556;28;20041;-63
2023/07/25 02:25:57;;;;;;;7.03;2.70;;;12.90;99.90;;;;;;5035497;28;20047;-62
2023/07/25 02:28:23;;;;;;;4.18;2.60;;;12.80;99.90;;;;;;5035065;28;20049;-62
2023/07/25 02:30:48;;;;;;;4.78;2.67;;;13.10;99.90;;;;;;5035360;28;20047;-62
2023/07/25 02:33:14;;;;;;;5.13;2.65;;;12.70;99.90;;;;;;5035264;28;20039;-63
2023/07/25 02:35:40;;;;;;;9.63;2.70;;;13.40;99.90;;;;;;5035265;28;20091;-62
2023/07/25 02:38:05;;;;;;;6.90;2.72;;;13.10;99.90;;;;;;5035046;28;20053;-63
2023/07/25 02:40:31;;;;;;;5.38;2.40;;;13.20;99.90;;;;;;5035197;28;20393;-63
2023/07/25 02:42:56;;;;;;;6.43;2.50;;;12.90;99.90;;;;;;5035135;28;20041;-62
2023/07/25 02:45:22;;;;;;;6.47;2.28;;;12.80;99.90;;;;;;5034889;28;20037;-63
2023/07/25 02:47:48;;;;;;;2.80;1.83;;;12.80;99.90;;;;;;5035112;28;20030;-63
2023/07/25 02:50:13;;;;;;;7.45;2.83;;;13.30;99.90;;;;;;5035046;28;20037;-63
2023/07/25 02:52:40;;;;;;;4.32;2.13;;;12.80;99.90;;;;;;5034977;28;20051;-63
2023/07/25 02:55:06;;;;;;;5.28;2.20;;;12.90;99.90;;;;;;5035096;28;20045;-63
2023/07/25 02:57:31;;;;;;;5.47;2.50;;;12.80;99.90;;;;;;5034835;28;20068;-63
2023/07/25 02:59:57;;;;;;;4.57;2.38;;;13.10;99.90;;;;;;5034840;28;20037;-63
2023/07/25 03:02:23;;;;;;;4.68;2.30;;;13.10;99.90;;;;;;5034678;28;20072;-63
2023/07/25 03:04:48;;;;;;;4.57;2.47;;;12.70;99.90;;;;;;5034460;28;20042;-63
2023/07/25 03:07:14;;;;;;;4.80;2.30;;;12.70;99.90;;;;;;5034424;28;20044;-63
2023/07/25 03:09:40;;;;;;;4.82;2.30;;;12.70;99.90;;;;;;5034564;28;20041;-63
2023/07/25 03:12:06;;;;;;;7.72;2.60;;;13.10;99.90;;;;;;5032896;28;20060;-63
2023/07/25 03:14:31;;;;;;;6.43;2.88;;;12.90;99.90;;;;;;5034555;28;20041;-63
2023/07/25 03:16:57;;;;;;;5.38;2.88;;;12.70;99.90;;;;;;5033312;28;20041;-63
2023/07/25 03:19:23;;;;;;;7.70;2.63;;;12.80;99.90;;;;;;5034496;28;20366;-63
2023/07/25 03:21:48;;;;;;;4.28;2.08;;;13.00;99.90;;;;;;5034370;28;20040;-63
2023/07/25 03:24:14;;;;;;;6.70;2.38;;;12.90;99.90;;;;;;5034110;28;20037;-63
2023/07/25 03:26:39;;;;;;;9.45;2.67;;;12.70;99.90;;;;;;5033992;28;20038;-63
2023/07/25 03:29:05;;;;;;;10.63;2.55;;;12.70;99.90;;;;;;5034301;28;20037;-63
2023/07/25 03:31:31;;;;;;;4.70;2.40;;;12.70;99.90;;;;;;5034281;28;20128;-63
2023/07/25 03:33:56;;;;;;;3.95;2.20;;;12.60;99.90;;;;;;5034088;28;20088;-63
2023/07/25 03:36:24;;;;;;;6.57;2.13;;;12.70;99.90;;;;;;5034143;28;20033;-63
2023/07/25 03:38:49;;;;;;;6.10;2.22;;;12.70;99.90;;;;;;5032512;28;20037;-63
2023/07/25 03:41:15;;;;;;;8.82;3.03;;;12.70;99.90;;;;;;5033351;28;20370;-65
2023/07/25 03:43:40;;;;;;;5.53;2.80;;;13.00;99.90;;;;;;5033921;28;20096;-63
2023/07/25 03:46:06;;;;;;;5.32;2.38;;;13.20;99.90;;;;;;5033920;28;20446;-63
2023/07/25 03:48:32;;;;;;;7.07;1.92;;;12.90;99.90;;;;;;5033908;28;20038;-63
2023/07/25 03:50:57;;;;;;;6.13;2.20;;;12.90;99.90;;;;;;5033873;28;20076;-63
2023/07/25 03:53:23;;;;;;;5.95;2.33;;;12.90;99.90;;;;;;5033750;28;20095;-63
2023/07/25 03:55:49;;;;;;;4.05;1.98;;;12.80;99.90;;;;;;5033734;28;20513;-63
2023/07/25 03:58:14;;;;;;;4.15;2.45;;;13.10;99.90;;;;;;5032208;28;20094;-63
2023/07/25 04:00:41;;;;;;;6.93;2.30;;;13.00;99.90;;;;;;5033293;28;20044;-63
2023/07/25 04:03:07;;;;;;;5.60;2.40;;;12.90;99.90;;;;;;5031937;28;20488;-63
2023/07/25 04:05:32;;;;;;;5.40;2.45;;;13.60;99.90;;;;;;5033557;28;20069;-63
2023/07/25 04:07:58;;;;;;;4.88;2.13;;;13.00;99.90;;;;;;5032257;28;20052;-63
2023/07/25 04:10:24;;;;;;;7.10;2.40;;;13.00;99.90;;;;;;5033524;28;20095;-62
2023/07/25 04:12:49;;;;;;;7.55;2.15;;;12.80;99.90;;;;;;5033388;28;20402;-62
2023/07/25 04:15:15;;;;;;;8.55;2.28;;;12.90;99.90;;;;;;5033413;28;20042;-63
2023/07/25 04:17:40;;;;;;;7.20;2.80;;;12.90;99.90;;;;;;5033361;28;20507;-64
2023/07/25 04:20:07;;;;;;;5.28;1.75;;;13.30;99.90;;;;;;5033346;28;20037;-63
2023/07/25 04:22:32;;;;;;;7.72;2.25;;;12.80;99.90;;;;;;5032978;28;20095;-63
2023/07/25 04:24:58;;;;;;;5.28;2.00;;;13.30;99.90;;;;;;5033245;28;20033;-63
2023/07/25 04:27:23;;;;;;;5.53;2.30;;;13.70;99.90;;;;;;5033268;28;20037;-63
2023/07/25 04:29:49;;;;;;;13.23;2.42;;;13.10;99.90;;;;;;5033204;28;20041;-63
2023/07/25 04:32:15;;;;;;;7.70;2.50;;;13.20;99.90;;;;;;5033090;28;20485;-62
2023/07/25 04:34:40;;;;;;;6.13;2.05;;;13.70;99.90;;;;;;5032881;28;20041;-63
2023/07/25 04:37:06;;;;;;;7.45;2.35;;;14.00;99.90;;;;;;5033106;28;20037;-63
2023/07/25 04:39:31;;;;;;;6.53;2.35;;;13.40;99.90;;;;;;5033151;28;20040;-63
2023/07/25 04:41:57;;;;;;;5.05;1.65;;;13.50;99.90;;;;;;5032921;28;20029;-63
2023/07/25 04:44:22;;;;;;;4.93;2.03;;;13.30;99.90;;;;;;5032651;28;20485;-63
2023/07/25 04:46:48;;;;;;;9.80;2.75;;;13.30;99.90;;;;;;5032707;28;20163;-63
2023/07/25 04:49:14;;;;;;;3.03;2.05;;;13.60;99.90;;;;;;5032727;28;20048;-63
2023/07/25 04:51:40;;;;;;;5.88;2.20;;;13.60;99.90;;;;;;5031361;28;20048;-63
2023/07/25 04:54:06;;;;;;;5.35;2.28;;;13.40;99.90;;;;;;5032887;28;20504;-63
2023/07/25 04:56:31;;;;;;;4.70;1.85;;;14.20;99.90;;;;;;5032960;28;20044;-63
2023/07/25 04:58:57;;;;;;;8.63;2.25;;;13.60;99.90;;;;;;5032919;28;20033;-63
2023/07/25 05:01:22;;;;;;;4.47;2.40;;;13.30;99.90;;;;;;5032679;28;20405;-66
2023/07/25 05:03:48;;;;;;;4.18;2.13;;;13.50;99.90;;;;;;5031284;28;20061;-63
2023/07/25 05:06:14;;;;;;;4.85;2.30;;;13.50;99.90;;;;;;5032593;28;20473;-63
2023/07/25 05:08:39;;;;;;;4.38;2.08;;;13.80;99.90;;;;;;5032755;28;20044;-63
2023/07/25 05:11:05;;;;;;;6.30;1.92;;;13.60;99.90;;;;;;5032561;28;20049;-63
2023/07/25 05:13:31;;;;;;;6.65;2.53;;;13.60;99.90;;;;;;5032692;28;20040;-63
2023/07/25 05:15:56;;;;;;;4.90;2.03;;;13.60;99.90;;;;;;5032697;28;20080;-63
2023/07/25 05:18:22;;;;;;;8.32;2.28;;;13.70;99.90;;;;;;5032380;28;20033;-63
2023/07/25 05:20:47;;;;;;;8.02;2.20;;;14.20;99.90;;;;;;5032691;28;20077;-63
2023/07/25 05:23:13;;;;;;;6.10;2.13;;;13.40;99.90;;;;;;5032639;28;20045;-67
2023/07/25 05:25:39;;;;;;;8.23;2.00;;;14.20;99.90;;;;;;5032303;28;20056;-67
2023/07/25 05:28:04;;;;;;;3.90;1.88;;;13.60;99.90;;;;;;5032386;28;20077;-63
2023/07/25 05:30:31;;;;;;;7.82;2.05;;;13.60;99.90;;;;;;5032313;28;20520;-63
2023/07/25 05:32:57;;;;;;;4.22;2.47;;;14.00;99.90;;;;;;5032151;28;20045;-63
2023/07/25 05:35:22;;;;;;;5.88;2.30;;;14.00;99.90;;;;;;5032398;28;20112;-63
2023/07/25 05:37:48;;;;;;;5.22;1.88;;;;;;;;;;5032590;28;20033;-65
2023/07/25 05:40:14;;;;;;;6.70;2.42;;;;;;;;;;5032348;28;20336;-64
2023/07/25 05:42:40;;;;;;;4.53;2.50;;;;;;;;;;5032539;28;20083;-64
2023/07/25 05:45:07;;;;;;;6.50;2.00;;;;;;;;;;5032491;28;20050;-63
2023/07/25 05:47:33;;;;;;;2.95;1.65;;;;;;;;;;5032274;28;20053;-63
2023/07/25 05:49:59;;;;;;;7.22;2.67;;;;;;;;;;5032469;28;20042;-64
2023/07/25 05:52:24;;;;;;;4.93;1.98;;;;;;;;;;5031138;28;20493;-64
2023/07/25 05:54:52;;;;;;;3.92;1.60;;;;;;;;;;5032361;28;20042;-67
2023/07/25 05:57:18;;;;;;;8.25;2.38;;;;;;;;;;5032196;28;20489;-66
2023/07/25 05:59:44;;;;;;;4.93;2.28;;;;;;;;;;5032274;28;20397;-63
2023/07/25 06:02:10;;;;;;;3.55;2.00;;;;;;;;;;5032125;28;20038;-63
2023/07/25 06:04:36;;;;;;;6.50;2.03;;;;;;;;;;5035281;28;20400;-63
2023/07/25 06:07:02;;;;;;;8.45;2.13;;;;;;;;;;5035639;28;20040;-63
2023/07/25 06:09:28;;;;;;;6.38;2.30;;;;;;;;;;5035538;28;20037;-63
2023/07/25 06:11:55;;;;;;;6.43;2.13;;;;;;;;;;5035803;28;20041;-63
2023/07/25 06:14:21;;;;;;;5.15;1.98;;;;;;;;;;5035632;28;20045;-63
2023/07/25 06:16:47;;;;;;;10.77;1.67;;;;;;;;;;5035360;28;20049;-63
2023/07/25 06:19:13;;;;;;;6.30;2.13;;;;;;;;;;5035661;28;20037;-63
2023/07/25 06:21:39;;;;;;;5.30;1.65;;;;;;;;;;5035604;28;20120;-63
2023/07/25 06:24:05;;;;;;;4.45;1.50;;;;;;;;;;5035620;28;20076;-63
2023/07/25 06:26:31;;;;;;;4.97;1.58;;;;;;;;;;5035527;28;20413;-63
2023/07/25 06:28:58;;;;;;;4.82;1.55;;;;;;;;;;5035193;28;20111;-63
2023/07/25 06:31:24;;;;;;;5.05;1.45;;;;;;;;;;5035184;28;20045;-63
2023/07/25 06:33:50;;;;;;;4.20;1.33;;;;;;;;;;5035347;28;20498;-63
2023/07/25 06:36:16;;;;;;;2.33;1.20;;;;;;;;;;5035380;28;20414;-63
2023/07/25 06:38:43;;;;;;;4.22;2.13;;;;;;;;;;5035260;28;20377;-63
2023/07/25 06:41:08;;;;;;;8.05;1.58;;;15.60;1.00;;;;;;5035323;28;20113;-63
2023/07/25 06:43:34;;;;;;;7.82;1.58;;;15.80;12.20;;;;;;5035221;28;20115;-63
2023/07/25 06:45:59;;;;;;;8.38;2.08;;;15.80;99.90;;;;;;5035161;28;20052;-63
2023/07/25 06:48:28;;;;;;;7.25;1.50;;;15.80;99.90;;;;;;5034889;28;20410;-63
2023/07/25 06:50:53;;;;;;;4.50;1.65;;;15.70;99.90;;;;;;5035065;28;20092;-65
2023/07/25 06:53:19;;;;;;;7.30;1.90;;;15.60;99.90;;;;;;5034584;28;20041;-64
2023/07/25 06:55:45;;;;;;;6.40;1.35;;;16.50;1.00;;;;;;5035019;28;20042;-61
2023/07/25 06:58:11;;;;;;;8.00;1.60;;;15.80;1.00;;;;;;5034729;28;20088;-62
2023/07/25 07:00:39;;;;;;;4.72;1.30;;;16.20;99.80;;;;;;5034612;28;20042;-63
2023/07/25 07:03:05;;;;;;;4.60;1.48;;;16.20;64.70;;;;;;5034615;28;20057;-63
2023/07/25 07:05:34;;;;;;;2.97;1.33;;;16.10;99.90;;;;;;5034868;28;20413;-63
2023/07/25 07:08:00;;;;;;;4.53;1.08;;;16.40;1.00;;;;;;5034679;28;20091;-63
2023/07/25 07:10:26;;;;;;;4.28;1.63;;;16.30;99.90;;;;;;5034720;28;20136;-63
2023/07/25 07:12:53;;;;;;;4.25;1.40;;;16.40;1.00;;;;;;5034679;28;20112;-63
2023/07/25 07:15:24;;;;;;;6.18;0.98;;;16.20;99.90;;;;;;5033551;28;20120;-63
2023/07/25 07:17:53;;;;;;;5.57;1.20;;;17.10;99.90;;;;;;5034615;28;20029;-63
2023/07/25 07:20:19;;;;;;;3.22;0.93;;;16.10;1.00;;;;;;5034495;28;20079;-63
2023/07/25 07:22:44;;;;;;;6.32;1.20;;;16.20;30.00;;;;;;5034052;28;20120;-63
2023/07/25 07:25:10;;;;;;;4.88;1.15;;;16.10;1.00;;;;;;5034358;28;20116;-63
2023/07/25 07:27:36;;;;;;;1.80;0.80;;;16.40;99.90;;;;;;5034393;28;20045;-63
2023/07/25 07:30:02;;;;;;;2.10;0.85;;;16.80;99.60;;;;;;5033991;28;20375;-63
2023/07/25 07:32:28;;;;;;;1.40;0.90;;;16.50;79.10;;;;;;5034186;28;20179;-63
2023/07/25 07:34:53;;;;;;;1.73;0.55;;;17.00;1.00;;;;;;5034255;28;20116;-63
2023/07/25 07:37:19;;;;;;;6.88;0.70;;;16.90;1.00;;;;;;5033857;28;20390;-63
2023/07/25 07:39:45;;;;;;;0.95;0.60;;;16.90;99.90;;;;;;5034163;28;20065;-63
2023/07/25 07:42:11;;;;;;;3.95;1.05;;;;;;;;;;5034059;28;20038;-63
2023/07/25 07:44:37;;;;;;;1.58;0.65;;;;;;;;;;5033714;28;20128;-63
2023/07/25 07:47:03;;;;;;;4.43;0.88;;;;;;;;;;5034009;28;20049;-63
2023/07/25 07:49:28;;;;;;;3.45;0.70;;;17.00;1.00;;;;;;5033634;28;20060;-63
2023/07/25 07:51:54;;;;;;;2.25;0.80;;;;;;;;;;5033920;28;20042;-63
2023/07/25 07:54:20;;;;;;;2.97;0.77;;;;;;;;;;5033494;28;20037;-63
2023/07/25 07:56:46;;;;;;;1.55;0.43;;;;;;;;;;5033752;28;20041;-63
2023/07/25 07:59:12;;;;;;;3.63;0.65;;;;;;;;;;5033489;28;20037;-63
2023/07/25 08:01:38;;;;;;;2.22;0.60;;;;;;;;;;5033700;28;20120;-63
2023/07/25 08:04:04;;;;;;;1.85;0.68;;;;;;;;;;5033254;28;20564;-63
2023/07/25 08:06:31;;;;;;;2.47;0.65;;;;;;;;;;5033669;28;20056;-63
2023/07/25 08:08:57;;;;;;;5.80;0.77;;;;;;;;;;5033216;28;20048;-63
2023/07/25 08:11:23;;;;;;;2.80;0.68;;;;;;;;;;5033526;28;20420;-63
2023/07/25 08:13:50;;;;;;;6.78;1.05;;;;;;;;;;5033013;28;20576;-63
2023/07/25 08:16:16;;;;;;;2.50;0.70;;;;;;;;;;5033456;28;20081;-63
2023/07/25 08:18:42;;;;;;;3.67;0.70;;;;;;;;;;5033463;28;20047;-63
2023/07/25 08:21:07;;;;;;;5.35;0.70;;;17.90;89.70;;;;;;5033452;28;20037;-63
2023/07/25 08:23:33;;;;;;;1.63;0.73;;;17.80;91.00;;;;;;5033093;28;20045;-64
2023/07/25 08:25:58;;;;;;;3.67;0.88;;;18.10;90.20;;;;;;5033028;28;20461;-65
2023/07/25 08:28:24;;;;;;;3.25;0.50;;;18.40;97.00;;;;;;5033273;28;20046;-63
2023/07/25 08:31:00;;;;;;;0.65;0.30;;;18.40;86.40;;;;;;5033273;28;20033;-64
2023/07/25 08:33:32;;;;;;;3.92;0.75;;;18.20;38.40;;;;;;5032830;28;20050;-63
2023/07/25 08:35:58;;;;;;;0.88;0.40;;;18.00;58.60;;;;;;5032906;28;20049;-64
2023/07/25 08:38:23;;;;;;;0.88;0.40;;;17.80;56.00;;;;;;5031642;28;20128;-63
2023/07/25 08:41:01;;;;;;;2.65;0.50;;;17.70;56.90;;;;;;5033059;28;20049;-63
2023/07/25 08:43:28;;;;;;;3.25;0.73;;;17.70;57.30;;;;;;5033103;28;20045;-63
2023/07/25 08:45:56;;;;;;;1.27;0.70;;;17.90;58.30;;;;;;5033086;28;20038;-63
2023/07/25 08:48:25;;;;;;;0.40;0.22;;;17.90;54.70;;;;;;5033102;28;20504;-63
2023/07/25 08:50:52;;;;;;;1.73;0.47;;;17.70;48.70;;;;;;5032944;28;20041;-63
2023/07/25 08:53:19;;;;;;;3.03;0.70;;;17.50;39.50;;;;;;5032856;28;20041;-63
2023/07/25 08:55:45;;;;;;;2.60;0.80;;;17.10;40.10;;;;;;5032605;28;20064;-63
2023/07/25 08:58:13;;;;;;;2.75;0.60;;;17.30;38.70;;;;;;5032893;28;20038;-63
2023/07/25 09:00:39;;;;;;;2.15;0.65;;;17.40;50.90;;;;;;5048236;28;20034;-63
2023/07/25 09:03:07;;;;;;;1.00;0.32;;;17.90;42.30;;;;;;5032653;28;20448;-64
2023/07/25 09:05:33;;;;;;;1.70;0.45;;;17.90;37.70;;;;;;5032789;28;20107;-63
2023/07/25 09:07:59;;;;;;;2.92;0.50;;;18.60;30.60;;;;;;5032842;28;20448;-64
2023/07/25 09:10:29;;;;;;;0.75;0.50;;;17.70;29.20;;;;;;5032872;28;20049;-63
2023/07/25 09:12:54;;;;;;;2.17;0.70;;;17.80;27.00;;;;;;5032756;28;20080;-64
2023/07/25 09:15:20;;;;;;;1.88;0.50;;;17.90;29.80;;;;;;5032695;28;20069;-64
2023/07/25 09:17:46;;;;;;;3.53;0.70;;;18.10;31.80;;;;;;5032600;28;20079;-64
2023/07/25 09:20:12;;;;;;;2.10;0.60;;;18.00;26.50;;;;;;5032483;28;20370;-63
2023/07/25 09:22:38;;;;;;;3.20;0.70;;;18.40;22.80;;;;;;5032325;28;20049;-64
2023/07/25 09:25:13;;;;;;;3.38;0.60;;;18.70;27.90;;;;;;5032647;28;20033;-65
2023/07/25 09:27:39;;;;;;;2.50;0.50;;;18.80;24.20;;;;;;5032592;28;20033;-65
2023/07/25 09:30:12;;;;;;;1.10;0.55;;;18.80;25.70;;;;;;5032514;28;20415;-64
2023/07/25 09:32:37;;;;;;;0.70;0.20;;;18.60;15.00;;;;;;5032175;28;20045;-64
2023/07/25 09:35:06;;;;;;;2.10;0.70;;;18.30;13.70;;;;;;5032559;28;20036;-64
2023/07/25 09:37:32;;;;;;;6.05;1.08;;;18.20;13.90;;;;;;5031104;28;20563;-64
2023/07/25 09:39:58;;;;;;;0.90;0.50;;;18.20;15.90;;;;;;5036372;28;20132;-64
2023/07/25 09:42:25;;;;;;;3.88;0.70;;;18.10;15.40;;;;;;5036316;28;20077;-64
2023/07/25 09:44:52;;;;;;;4.03;0.60;;;18.50;12.40;;;;;;5036237;28;20500;-64
2023/07/25 09:47:26;;;;;;;1.65;0.50;;;18.60;11.70;;;;;;5035902;28;20072;-64
2023/07/25 09:49:53;;;;;;;2.08;0.60;;;18.70;9.00;;;;;;5036250;28;20037;-64
2023/07/25 09:52:18;;;;;;;1.00;0.60;;;18.80;12.20;;;;;;5036162;28;20047;-64
2023/07/25 09:54:44;;;;;;;1.83;0.50;;;19.00;12.20;;;;;;5035849;28;20112;-64
2023/07/25 09:57:10;;;;;;;3.95;0.60;;;19.20;16.40;;;;;;5036140;28;20080;-64
2023/07/25 09:59:36;;;;;;;1.13;0.63;;;19.50;19.10;;;;;;5036063;28;20045;-64
2023/07/25 10:02:03;;;;;;;1.73;0.50;;;;;;;;;;5035827;28;20040;-64
2023/07/25 10:04:30;;;;;;;1.75;0.60;;;;;;;;;;5035575;28;20062;-64
2023/07/25 10:06:58;;;;;;;2.38;0.63;;;19.30;1.00;;;;;;5035634;28;20060;-64
2023/07/25 10:09:28;;;;;;;1.80;0.63;;;20.00;9.30;;;;;;5035902;28;20060;-68
2023/07/25 10:11:53;;;;;;;1.63;0.52;;;19.40;11.90;;;;;;5035862;28;20411;-64
2023/07/25 10:14:19;;;;;;;1.65;0.68;;;19.40;12.20;;;;;;5035590;28;20124;-64
2023/07/25 10:16:46;;;;;;;0.63;0.45;;;19.10;6.90;;;;;;5034359;28;20401;-64
2023/07/25 10:19:12;;;;;;;1.08;0.55;;;19.00;4.50;;;;;;5035503;28;20091;-64
2023/07/25 10:21:52;;;;;;;4.28;0.73;;;19.60;7.10;;;;;;5035612;28;20507;-64
2023/07/25 10:24:19;;;;;;;2.53;0.80;;;19.10;9.80;;;;;;5035576;28;20045;-64
2023/07/25 10:27:12;;;;;;;3.85;0.73;;;19.50;7.80;;;;;;5035203;28;20099;-64
2023/07/25 10:29:38;;;;;;;2.45;0.80;;;19.80;2.60;;;;;;5032625;28;20140;-64
2023/07/25 10:32:04;;;;;;;0.88;0.40;;;19.20;2.40;;;;;;5035156;28;20547;-63
2023/07/25 10:34:52;;;;;;;0.98;0.70;;;19.10;5.90;;;;;;5034961;28;20124;-64
2023/07/25 10:37:29;;;;;;;3.03;0.75;;;19.00;5.10;;;;;;5035370;28;20060;-64
2023/07/25 10:40:12;;;;;;;0.93;0.50;;;19.20;11.40;;;;;;5035281;28;20418;-64
2023/07/25 10:42:42;;;;;;;2.63;0.77;;;19.80;10.90;;;;;;5034944;28;20037;-64
2023/07/25 10:45:20;;;;;;;;;;;19.10;11.10;;;;;;5035630;28;20037;-66
2023/07/25 10:47:48;;;;;;;3.88;0.60;;;19.30;14.00;;;;;;5035157;28;19957;-64
2023/07/25 10:50:25;;;;;;;0.95;0.60;;;19.50;19.10;;;;;;5034921;28;20477;-64
2023/07/25 10:52:50;;;;;;;1.38;0.50;;;19.50;14.80;;;;;;5034961;28;20041;-64
2023/07/25 10:55:16;;;;;;;1.83;0.60;;;19.30;12.70;;;;;;5035031;28;20048;-64
2023/07/25 10:58:02;;;;;;;3.92;0.68;;;19.40;12.20;;;;;;5034592;28;20042;-65
2023/07/25 11:00:35;;;;;;;1.65;0.55;;;19.20;10.30;;;;;;5034561;28;20042;-64
2023/07/25 11:03:27;;;;;;;3.22;0.60;;;19.00;2.10;;;;;;5033401;28;20501;-64
2023/07/25 11:06:13;;;;;;;3.38;0.80;;;18.70;2.40;;;;;;5034725;28;20053;-64
2023/07/25 11:08:42;;;;;;;4.43;1.20;;;18.00;1.90;;;;;;5033236;28;20045;-64
2023/07/25 11:11:09;;;;;;;1.27;0.55;;;18.30;2.40;;;;;;5034724;28;20045;-64
2023/07/25 11:13:42;;;;;;;2.67;0.73;;;18.60;6.90;;;;;;5034678;28;20378;-65
2023/07/25 11:16:13;;;;;;;4.32;1.10;;;18.80;8.20;;;;;;5034781;28;20045;-64
2023/07/25 11:18:50;;;;;;;1.45;0.80;;;18.90;9.50;;;;;;5034687;28;20132;-64
2023/07/25 11:21:15;;;;;;;3.95;0.77;;;19.00;12.10;;;;;;5034546;28;20473;-64
2023/07/25 11:23:41;;;;;;;2.05;0.98;;;18.90;9.00;;;;;;5034519;28;20091;-70
2023/07/25 11:26:07;;;;;;;4.70;0.70;;;18.70;11.00;;;;;;5033200;28;20049;-64
2023/07/25 11:28:34;;;;;;;5.95;0.73;;;18.50;18.50;;;;;;5034480;28;20048;-64
2023/07/25 11:30:59;;;;;;;4.50;0.90;;;18.50;9.10;;;;;;5034436;28;20041;-64
2023/07/25 11:33:25;;;;;;;5.88;1.10;;;18.30;9.50;;;;;;5034208;28;20637;-64
2023/07/25 11:35:52;;;;;;;4.68;0.70;;;18.60;12.60;;;;;;5034248;28;20048;-64
2023/07/25 11:38:18;;;;;;;3.35;0.95;;;18.90;12.80;;;;;;5034247;28;20037;-64
2023/07/25 11:40:50;;;;;;;0.73;0.40;;;19.10;10.70;;;;;;5034201;28;20455;-65
2023/07/25 11:43:16;;;;;;;2.20;0.68;;;18.90;4.20;;;;;;5034110;28;20129;-64
2023/07/25 11:45:44;;;;;;;3.45;1.00;;;18.60;4.20;;;;;;5032809;28;20393;-64
2023/07/25 11:48:10;;;;;;;1.88;0.52;;;18.90;3.80;;;;;;5034008;28;20041;-64
2023/07/25 11:50:36;;;;;;;4.82;0.93;;;18.80;4.40;;;;;;5034007;28;20048;-64
2023/07/25 11:53:02;;;;;;;2.00;0.38;;;18.80;2.70;;;;;;5033911;28;20048;-64
2023/07/25 11:55:28;;;;;;;2.05;0.60;;;18.80;3.80;;;;;;5033870;28;20486;-64
2023/07/25 11:57:55;;;;;;;3.83;0.90;;;18.80;3.40;;;;;;5033567;28;20113;-64
2023/07/25 12:00:22;;;;;;;2.15;0.60;;;18.70;1.00;;;;;;5033102;28;20371;-64
2023/07/25 12:02:47;;;;;;;2.47;0.77;;;18.80;1.70;;;;;;5033022;28;20496;-64
2023/07/25 12:05:27;;;;;;;2.80;0.70;;;18.80;2.20;;;;;;5033591;28;20045;-64
2023/07/25 12:08:00;;;;;;;6.47;0.70;;;18.90;1.20;;;;;;5033575;28;20039;-64
2023/07/25 12:10:26;;;;;;;1.80;0.65;;;19.00;4.10;;;;;;5031974;28;20144;-64
2023/07/25 12:12:56;;;;;;;0.95;0.60;;;18.90;4.60;;;;;;5033369;28;20077;-64
2023/07/25 12:15:23;;;;;;;6.43;0.98;;;18.90;3.20;;;;;;5033408;28;20107;-64
2023/07/25 12:17:49;;;;;;;3.90;0.88;;;18.80;1.00;;;;;;5033345;28;20117;-64
2023/07/25 12:20:19;;;;;;;2.45;0.73;;;18.80;11.40;;;;;;5031828;28;20128;-64
2023/07/25 12:22:45;;;;;;;;;;;18.90;2.50;;;;;;5033617;28;20119;-64
2023/07/25 12:25:18;;;;;;;0.63;0.40;;;19.00;1.00;;;;;;5033239;28;20351;-64
2023/07/25 12:27:45;;;;;;;2.42;0.60;;;19.20;2.90;;;;;;5032892;28;20041;-65
2023/07/25 12:30:11;;;;;;;1.17;0.70;;;19.30;3.50;;;;;;5033217;28;20077;-64
2023/07/25 12:32:37;;;;;;;2.55;0.73;;;19.40;4.40;;;;;;5032924;28;20111;-64
2023/07/25 12:35:02;;;;;;;3.40;0.70;;;19.50;1.50;;;;;;5033060;28;20519;-64
2023/07/25 12:37:28;;;;;;;2.80;0.47;;;19.30;1.00;;;;;;5032707;28;20369;-64
2023/07/25 12:39:53;;;;;;;2.05;0.77;;;19.30;1.00;;;;;;5032968;28;20037;-64
2023/07/25 12:42:19;;;;;;;2.55;0.57;;;20.10;1.90;;;;;;5032939;28;20437;-64
2023/07/25 12:44:45;;;;;;;0.73;0.32;;;19.40;1.00;;;;;;5032896;28;20045;-64
2023/07/25 12:47:10;;;;;;;4.65;0.50;;;19.30;1.00;;;;;;5032883;28;20044;-65
2023/07/25 12:49:36;;;;;;;2.30;0.50;;;19.40;9.00;;;;;;5032564;28;20124;-64
2023/07/25 12:52:02;;;;;;;5.00;1.10;;;19.90;1.00;;;;;;5032809;28;20049;-64
2023/07/25 12:54:27;;;;;;;0.95;0.32;;;19.50;1.00;;;;;;5032424;28;20080;-64
2023/07/25 12:56:53;;;;;;;0.90;0.50;;;19.60;1.60;;;;;;5032772;28;20077;-64
2023/07/25 12:59:18;;;;;;;1.15;0.40;;;19.40;1.00;;;;;;5032767;28;20479;-64
2023/07/25 13:01:44;;;;;;;1.08;0.65;;;19.70;3.00;;;;;;5032721;28;20033;-64